Time;durP1;ratioP1;P1;durP2;ratioP2;P2;SDS_P1;SDS_P2;PMS_P1;PMS_P2;Temp;Humidity;BMP_temperature;BMP_pressure;BME280_temperature;BME280_humidity;BME280_pressure;Samples;Min_cycle;Max_cycle;Signal;HPM_P1;HPM_P2
2021/07/17 00:00:48;;;;;;;33.50;30.50;;;;;;;;;;5076416;28;20457;-90
2021/07/17 00:03:15;;;;;;;36.67;29.10;;;;;;;;;;5058084;28;20447;-90
2021/07/17 00:05:43;;;;;;;33.80;30.27;;;;;;;;;;5076057;28;20467;-90
2021/07/17 00:08:10;;;;;;;31.67;28.37;;;;;;;;;;5075971;28;20401;-90
2021/07/17 00:10:40;;;;;;;31.93;28.63;;;;;;;;;;5076040;28;20442;-90
2021/07/17 00:13:08;;;;;;;32.40;29.10;;;;;;;;;;5058392;28;20422;-89
2021/07/17 00:15:36;;;;;;;31.70;28.40;;;;;;;;;;5075504;28;21027;-89
2021/07/17 00:18:04;;;;;;;32.63;29.47;;;;;;;;;;5075916;28;20434;-90
2021/07/17 00:20:32;;;;;;;31.80;28.37;;;;;;;;;;5060550;28;20421;-89
2021/07/17 00:22:59;;;;;;;34.00;29.97;;;;;;;;;;5083030;28;20497;-90
2021/07/17 00:25:26;;;;;;;30.90;27.60;;;;;;;;;;5081437;28;20858;-90
2021/07/17 00:27:57;;;;;;;37.67;31.50;;;;;;;;;;5078679;28;20414;-90
2021/07/17 00:30:25;;;;;;;32.17;28.70;;;;;;;;;;5079899;28;20455;-89
2021/07/17 00:32:52;;;;;;;32.53;29.43;;;;;;;;;;5078790;28;20815;-90
2021/07/17 00:35:20;;;;;;;30.13;27.20;;;;;;;;;;5082226;28;20439;-89
2021/07/17 00:37:48;;;;;;;32.00;29.23;;;;;;;;;;5079955;28;20475;-89
2021/07/17 00:40:20;;;;;;;32.43;29.73;;;;;;;;;;5061938;28;20414;-90
2021/07/17 00:42:48;;;;;;;41.13;29.93;;;;;;;;;;5080553;28;20448;-90
2021/07/17 00:45:17;;;;;;;37.00;29.80;;;;;;;;;;5077741;28;20413;-89
2021/07/17 00:47:44;;;;;;;33.13;29.53;;;;;;;;;;5077345;28;20433;-90
2021/07/17 00:50:13;;;;;;;32.93;29.90;;;;;;;;;;5074881;28;20485;-90
2021/07/17 00:52:40;;;;;;;33.37;29.77;;;;;;;;;;5079827;28;20414;-89
2021/07/17 00:55:09;;;;;;;32.10;28.87;;;;;;;;;;5059418;28;20943;-90
2021/07/17 00:57:37;;;;;;;35.07;31.47;;;;;;;;;;5076433;28;20446;-90
2021/07/17 01:00:07;;;;;;;33.77;30.33;;;;;;;;;;5078359;28;20518;-89
2021/07/17 01:02:38;;;;;;;41.50;31.23;;;;;;;;;;5059497;28;20421;-90
2021/07/17 01:05:07;;;;;;;37.27;29.80;;;;;;;;;;5077063;28;20437;-89
2021/07/17 01:07:36;;;;;;;33.20;29.80;;;;;;;;;;5077036;28;20450;-90
2021/07/17 01:10:05;;;;;;;32.60;29.40;;;;;;;;;;5058960;28;20502;-90
2021/07/17 01:12:32;;;;;;;33.83;30.50;;;;;;;;;;5077401;28;20459;-90
2021/07/17 01:15:00;;;;;;;34.20;30.50;;;;;;;;;;5058518;28;20453;-90
2021/07/17 01:17:27;;;;;;;33.03;29.40;;;;;;;;;;5083463;28;20426;-89
2021/07/17 01:19:56;;;;;;;35.73;29.87;;;;;;;;;;5077730;28;20421;-89
2021/07/17 01:22:26;;;;;;;36.27;30.83;;;;;;;;;;5077204;28;20407;-89
2021/07/17 01:24:53;;;;;;;33.67;30.30;;;;;;;;;;5078199;28;20439;-90
2021/07/17 01:27:21;;;;;;;40.03;30.33;;;;;;;;;;5075164;28;20457;-90
2021/07/17 01:29:48;;;;;;;33.03;29.77;;;;;;;;;;5076612;28;20454;-90
2021/07/17 01:32:19;;;;;;;37.07;30.90;;;;;;;;;;5076818;28;20415;-90
2021/07/17 01:34:47;;;;;;;34.13;30.87;;;;;;;;;;5075585;28;20448;-90
2021/07/17 01:37:15;;;;;;;35.97;30.43;;;;;;;;;;5075369;28;20451;-90
2021/07/17 01:39:44;;;;;;;34.33;30.57;;;;;;;;;;5076980;28;20930;-89
2021/07/17 01:42:12;;;;;;;37.93;30.53;;;;;;;;;;5078065;28;20403;-89
2021/07/17 01:44:43;;;;;;;35.67;31.83;;;;;;;;;;5076420;28;20446;-90
2021/07/17 01:47:14;;;;;;;34.90;30.47;;;;;;;;;;5079609;28;20461;-89
2021/07/17 01:49:42;;;;;;;33.70;30.20;;;;;;;;;;5077392;28;20772;-90
2021/07/17 01:52:10;;;;;;;35.40;31.90;;;;;;;;;;5078720;28;20456;-90
2021/07/17 01:54:41;;;;;;;35.90;32.40;;;;;;;;;;5059329;28;20420;-89
2021/07/17 01:57:17;;;;;;;34.70;31.33;;;;;;;;;;5078079;28;20844;-90
2021/07/17 01:59:45;;;;;;;41.00;33.40;;;;;;;;;;5060928;28;20417;-88
2021/07/17 02:02:13;;;;;;;36.10;30.93;;;;;;;;;;5082632;28;20435;-88
2021/07/17 02:04:41;;;;;;;37.27;32.20;;;;;;;;;;5078296;28;20405;-88
2021/07/17 02:07:08;;;;;;;36.10;32.37;;;;;;;;;;5078308;28;20463;-88
2021/07/17 02:09:36;;;;;;;34.17;30.77;;;;;;;;;;5077876;28;20806;-88
2021/07/17 02:12:03;;;;;;;35.73;32.53;;;;;;;;;;5079960;28;20428;-88
2021/07/17 02:14:36;;;;;;;38.40;34.63;;;;;;;;;;5077748;28;20445;-88
2021/07/17 02:17:06;;;;;;;35.20;31.70;;;;;;;;;;5075978;28;20420;-88
2021/07/17 02:19:34;;;;;;;42.00;33.43;;;;;;;;;;5078992;28;20508;-89
2021/07/17 02:22:02;;;;;;;33.60;30.47;;;;;;;;;;5060624;28;20499;-87
2021/07/17 02:24:30;;;;;;;43.80;35.07;;;;;;;;;;5077359;28;20799;-88
2021/07/17 02:26:57;;;;;;;36.77;30.53;;;;;;;;;;5062141;28;20516;-88
2021/07/17 02:29:25;;;;;;;34.70;31.17;;;;;;;;;;5080425;28;20461;-88
2021/07/17 02:31:54;;;;;;;34.50;31.03;;;;;;;;;;5081290;28;20434;-89
2021/07/17 02:34:21;;;;;;;41.50;33.30;;;;;;;;;;5080686;28;20430;-88
2021/07/17 02:36:49;;;;;;;34.80;31.10;;;;;;;;;;5079410;28;20412;-88
2021/07/17 02:39:16;;;;;;;43.20;35.50;;;;;;;;;;5080963;28;20428;-88
2021/07/17 02:41:44;;;;;;;37.70;33.27;;;;;;;;;;5079799;28;20990;-88
2021/07/17 02:44:13;;;;;;;39.30;30.63;;;;;;;;;;5080074;28;20432;-88
2021/07/17 02:46:41;;;;;;;41.60;34.37;;;;;;;;;;5084631;28;20456;-88
2021/07/17 02:49:11;;;;;;;34.10;30.63;;;;;;;;;;5083864;28;20420;-89
2021/07/17 02:51:43;;;;;;;51.77;35.40;;;;;;;;;;5085583;28;20411;-88
2021/07/17 02:54:17;;;;;;;34.80;31.20;;;;;;;;;;5082543;28;20450;-89
2021/07/17 02:56:45;;;;;;;36.73;33.17;;;;;;;;;;5083356;28;20463;-89
2021/07/17 02:59:13;;;;;;;35.80;31.83;;;;;;;;;;5082019;28;20435;-89
2021/07/17 03:01:49;;;;;;;36.27;32.60;;;;;;;;;;5080408;28;20448;-89
2021/07/17 03:04:34;;;;;;;39.80;32.20;;;;;;;;;;5084595;28;20521;-89
2021/07/17 03:07:02;;;;;;;36.00;30.47;;;;;;;;;;5080570;28;20888;-89
2021/07/17 03:09:30;;;;;;;36.90;33.00;;;;;;;;;;5081924;28;20442;-88
2021/07/17 03:11:58;;;;;;;34.37;30.33;;;;;;;;;;5082288;28;20452;-89
2021/07/17 03:14:25;;;;;;;36.00;31.80;;;;;;;;;;5081519;28;20433;-89
2021/07/17 03:16:55;;;;;;;37.40;31.50;;;;;;;;;;5081253;28;20446;-89
2021/07/17 03:19:24;;;;;;;34.37;30.90;;;;;;;;;;5082758;28;20435;-89
2021/07/17 03:21:54;;;;;;;37.10;31.17;;;;;;;;;;5081633;28;20418;-89
2021/07/17 03:24:23;;;;;;;35.43;31.90;;;;;;;;;;5083239;28;20804;-90
2021/07/17 03:26:51;;;;;;;36.43;32.70;;;;;;;;;;5081773;28;20975;-89
2021/07/17 03:29:19;;;;;;;35.93;31.40;;;;;;;;;;5082422;28;20920;-88
2021/07/17 03:31:46;;;;;;;36.57;32.73;;;;;;;;;;5081905;28;20421;-89
2021/07/17 03:34:14;;;;;;;34.77;31.00;;;;;;;;;;5082603;28;20421;-89
2021/07/17 03:36:44;;;;;;;35.87;32.60;;;;;;;;;;5083187;28;20417;-89
2021/07/17 03:39:14;;;;;;;33.93;30.50;;;;;;;;;;5082010;28;20883;-90
2021/07/17 03:41:42;;;;;;;35.83;32.20;;;;;;;;;;5085254;28;20462;-89
2021/07/17 03:44:10;;;;;;;38.00;32.60;;;;;;;;;;5065483;28;20767;-88
2021/07/17 03:46:37;;;;;;;34.47;30.97;;;;;;;;;;5084907;28;20545;-89
2021/07/17 03:49:05;;;;;;;34.77;31.10;;;;;;;;;;5085166;28;20466;-90
2021/07/17 03:51:32;;;;;;;35.47;32.17;;;;;;;;;;5087590;28;20530;-90
2021/07/17 03:54:01;;;;;;;36.43;32.67;;;;;;;;;;5080953;28;20439;-90
2021/07/17 03:56:28;;;;;;;42.50;33.47;;;;;;;;;;5077153;28;20482;-90
2021/07/17 03:58:56;;;;;;;33.20;30.00;;;;;;;;;;5078169;28;20434;-90
2021/07/17 04:01:23;;;;;;;43.07;33.47;;;;;;;;;;5059783;28;20413;-90
2021/07/17 04:03:51;;;;;;;35.10;31.90;;;;;;;;;;5077254;28;20412;-89
2021/07/17 04:06:18;;;;;;;35.80;32.03;;;;;;;;;;5077051;28;20409;-89
2021/07/17 04:08:46;;;;;;;37.03;33.17;;;;;;;;;;5076854;28;20445;-89
2021/07/17 04:11:14;;;;;;;34.57;31.07;;;;;;;;;;5077997;28;20892;-89
2021/07/17 04:13:42;;;;;;;36.03;32.50;;;;;;;;;;5063967;28;20420;-89
2021/07/17 04:16:09;;;;;;;35.23;31.33;;;;;;;;;;5060061;28;20448;-90
2021/07/17 04:18:37;;;;;;;35.73;32.07;;;;;;;;;;5077559;28;20878;-88
2021/07/17 04:21:04;;;;;;;36.93;32.93;;;;;;;;;;5076418;28;20893;-89
2021/07/17 04:23:31;;;;;;;35.93;31.03;;;;;;;;;;5075859;28;20425;-89
2021/07/17 04:25:59;;;;;;;36.20;32.70;;;;;;;;;;5076168;28;20471;-90
2021/07/17 04:28:28;;;;;;;33.77;30.30;;;;;;;;;;5076506;28;20486;-89
2021/07/17 04:30:55;;;;;;;37.30;31.73;;;;;;;;;;5058083;28;20478;-89
2021/07/17 04:33:23;;;;;;;36.37;31.90;;;;;;;;;;5058168;28;20461;-90
2021/07/17 04:35:50;;;;;;;34.53;31.23;;;;;;;;;;5075539;28;20428;-90
2021/07/17 04:38:17;;;;;;;35.23;30.87;;;;;;;;;;5075755;28;20437;-89
2021/07/17 04:40:45;;;;;;;34.73;30.80;;;;;;;;;;5058137;28;20475;-89
2021/07/17 04:43:12;;;;;;;35.07;31.63;;;;;;;;;;5075634;28;20446;-90
2021/07/17 04:45:41;;;;;;;35.23;31.93;;;;;;;;;;5075323;28;20505;-89
2021/07/17 04:48:09;;;;;;;33.63;30.20;;;;;;;;;;5079584;28;20450;-89
2021/07/17 04:50:37;;;;;;;34.67;30.97;;;;;;;;;;5079028;28;20443;-89
2021/07/17 04:53:05;;;;;;;35.00;31.43;;;;;;;;;;5062971;28;20421;-89
2021/07/17 04:55:33;;;;;;;34.60;30.80;;;;;;;;;;5082214;28;20558;-89
2021/07/17 04:58:02;;;;;;;35.30;31.60;;;;;;;;;;5076893;28;20427;-90
2021/07/17 05:00:30;;;;;;;32.67;29.77;;;;;;;;;;5060570;28;20445;-89
2021/07/17 05:02:59;;;;;;;40.33;31.80;;;;;;;;;;5077007;28;20457;-89
2021/07/17 05:05:27;;;;;;;34.67;31.00;;;;;;;;;;5077100;28;20920;-90
2021/07/17 05:07:55;;;;;;;36.83;32.57;;;;;;;;;;5076416;28;20460;-89
2021/07/17 05:10:23;;;;;;;33.70;30.07;;;;;;;;;;5075891;28;20417;-89
2021/07/17 05:12:51;;;;;;;36.30;31.33;;;;;;;;;;5076443;28;20458;-89
2021/07/17 05:15:18;;;;;;;34.23;30.27;;;;;;;;;;5076443;28;20492;-89
2021/07/17 05:17:46;;;;;;;33.70;30.43;;;;;;;;;;5075109;28;20419;-89
2021/07/17 05:20:16;;;;;;;33.23;30.17;;;;;;;;;;5075866;28;20451;-89
2021/07/17 05:22:45;;;;;;;33.53;30.27;;;;;;;;;;5057062;28;20443;-88
2021/07/17 05:25:13;;;;;;;36.47;32.73;;;;;;;;;;5074842;28;20512;-89
2021/07/17 05:27:40;;;;;;;33.53;30.17;;;;;;;;;;5074376;28;20490;-92
2021/07/17 05:30:09;;;;;;;34.17;30.63;;;;;;;;;;5078294;28;20429;-91
2021/07/17 05:32:36;;;;;;;35.47;31.73;;;;;;;;;;5075446;28;20401;-92
2021/07/17 05:35:04;;;;;;;34.73;31.20;;;;;;;;;;5075107;28;20928;-90
2021/07/17 05:37:33;;;;;;;34.23;30.87;;;;;;;;;;5057387;28;20466;-92
2021/07/17 05:40:00;;;;;;;35.80;30.40;;;;;;;;;;5057773;28;20814;-92
2021/07/17 05:42:28;;;;;;;34.30;30.60;;;;;;;;;;5075977;28;20435;-91
2021/07/17 05:44:55;;;;;;;36.93;30.80;;;;;;;;;;5076037;28;20424;-92
2021/07/17 05:47:22;;;;;;;35.00;31.70;;;;;;;;;;5090733;28;20474;-92
2021/07/17 05:49:50;;;;;;;35.27;31.63;;;;;;;;;;5096187;28;20432;-92
2021/07/17 05:52:18;;;;;;;33.97;30.63;;;;;;;;;;5095515;28;20406;-92
2021/07/17 05:54:46;;;;;;;37.40;32.53;;;;;;;;;;5082407;28;20470;-92
2021/07/17 05:57:14;;;;;;;34.93;31.20;;;;;;;;;;5075090;28;20444;-92
2021/07/17 05:59:42;;;;;;;34.17;30.80;;;;;;;;;;5074644;28;20414;-92
2021/07/17 06:02:10;;;;;;;34.23;30.77;;;;;;;;;;5077889;28;20410;-91
2021/07/17 06:04:37;;;;;;;34.73;30.23;;;;;;;;;;5079132;28;20416;-92
2021/07/17 06:07:05;;;;;;;33.43;29.87;;;;;;;;;;5061118;28;20452;-92
2021/07/17 06:09:32;;;;;;;32.17;28.93;;;;;;;;;;5078462;28;20428;-91
2021/07/17 06:12:01;;;;;;;36.10;29.20;;;;;;;;;;5078552;28;20427;-92
2021/07/17 06:14:28;;;;;;;30.37;27.67;;;;;;;;;;5078320;28;20445;-92
2021/07/17 06:16:56;;;;;;;37.33;29.27;;;;;;;;;;5078470;28;20414;-90
2021/07/17 06:19:23;;;;;;;28.17;25.67;;;;;;;;;;5078505;28;20454;-90
2021/07/17 06:21:51;;;;;;;28.47;25.57;;;;;;;;;;5078191;28;20462;-91
2021/07/17 06:24:18;;;;;;;28.53;25.47;;;;;;;;;;5078215;28;20868;-91
2021/07/17 06:26:45;;;;;;;27.87;25.00;;;;;;;;;;5078384;28;20409;-92
2021/07/17 06:29:14;;;;;;;28.50;25.80;;;;;;;;;;5078211;28;20916;-91
2021/07/17 06:31:41;;;;;;;28.80;25.90;;;;;;;;;;5078034;28;20436;-92
2021/07/17 06:34:09;;;;;;;29.43;26.33;;;;;;;;;;5078050;28;20459;-92
2021/07/17 06:36:36;;;;;;;32.67;25.80;;;;;;;;;;5078270;28;20476;-92
2021/07/17 06:39:04;;;;;;;29.27;26.60;;;;;;;;;;5079735;28;20444;-92
2021/07/17 06:41:31;;;;;;;27.33;24.90;;;;;;;;;;5079131;28;20800;-91
2021/07/17 06:43:59;;;;;;;28.00;25.63;;;;;;;;;;5077619;28;20415;-91
2021/07/17 06:46:28;;;;;;;28.80;26.03;;;;;;;;;;5078065;28;20910;-92
2021/07/17 06:48:55;;;;;;;28.77;25.57;;;;;;;;;;5078025;28;20490;-92
2021/07/17 06:51:22;;;;;;;28.53;25.67;;;;;;;;;;5077317;28;20418;-92
2021/07/17 06:53:50;;;;;;;26.30;23.93;;;;;;;;;;5078758;28;20430;-92
2021/07/17 06:56:17;;;;;;;28.63;25.13;;;;;;;;;;5059485;28;20449;-92
2021/07/17 06:58:45;;;;;;;27.80;25.00;;;;;;;;;;5077817;28;20448;-91
2021/07/17 07:01:12;;;;;;;27.67;25.70;;;;;;;;;;5077302;28;20941;-92
2021/07/17 07:03:41;;;;;;;29.17;26.27;;;;;;;;;;5076872;28;20828;-92
2021/07/17 07:06:09;;;;;;;27.23;24.60;;;;;;;;;;5077175;28;20488;-95
2021/07/17 07:08:36;;;;;;;27.57;24.80;;;;;;;;;;5059411;28;20485;-94
2021/07/17 07:11:04;;;;;;;28.87;25.97;;;;;;;;;;5077310;28;20428;-93
2021/07/17 07:13:32;;;;;;;25.60;23.30;;;;;;;;;;5075988;28;20455;-91
2021/07/17 07:15:59;;;;;;;26.27;23.73;;;;;;;;;;5077026;28;20490;-91
2021/07/17 07:18:27;;;;;;;27.23;24.77;;;;;;;;;;5059458;28;20448;-91
2021/07/17 07:20:56;;;;;;;27.27;24.73;;;;;;;;;;5076968;28;20904;-92
2021/07/17 07:23:24;;;;;;;26.23;23.90;;;;;;;;;;5076570;28;20917;-91
2021/07/17 07:25:52;;;;;;;25.80;23.90;;;;;;;;;;5076526;28;20876;-92
2021/07/17 07:28:19;;;;;;;27.53;24.57;;;;;;;;;;5076398;28;20484;-91
2021/07/17 07:30:47;;;;;;;24.93;22.80;;;;;;;;;;5076878;28;20426;-91
2021/07/17 07:33:14;;;;;;;26.80;24.73;;;;;;;;;;5076549;28;20431;-91
2021/07/17 07:35:42;;;;;;;25.33;23.43;;;;;;;;;;5076712;28;20418;-91
2021/07/17 07:38:11;;;;;;;26.47;23.90;;;;;;;;;;5076690;28;20423;-91
2021/07/17 07:40:38;;;;;;;25.07;23.00;;;;;;;;;;5076623;28;20406;-92
2021/07/17 07:43:06;;;;;;;24.57;22.40;;;;;;;;;;5076636;28;20440;-92
2021/07/17 07:45:33;;;;;;;23.80;21.93;;;;;;;;;;5076481;28;20412;-92
2021/07/17 07:48:00;;;;;;;24.33;22.20;;;;;;;;;;5076699;28;20886;-92
2021/07/17 07:50:28;;;;;;;24.10;21.83;;;;;;;;;;5076763;28;20520;-92
2021/07/17 07:52:55;;;;;;;25.20;22.67;;;;;;;;;;5076156;28;20480;-92
2021/07/17 07:55:24;;;;;;;22.83;21.13;;;;;;;;;;5076113;28;20484;-93
2021/07/17 07:57:51;;;;;;;24.97;22.30;;;;;;;;;;5076110;28;20439;-92
2021/07/17 08:00:19;;;;;;;24.30;22.53;;;;;;;;;;5076577;28;20417;-94
2021/07/17 08:02:47;;;;;;;24.03;22.27;;;;;;;;;;5076141;28;20933;-93
2021/07/17 08:05:14;;;;;;;24.27;22.17;;;;;;;;;;5076149;28;20419;-91
2021/07/17 08:07:41;;;;;;;24.30;22.50;;;;;;;;;;5075749;28;20992;-91
2021/07/17 08:10:09;;;;;;;24.27;21.87;;;;;;;;;;5076330;28;20418;-92
2021/07/17 08:12:38;;;;;;;25.77;23.40;;;;;;;;;;5076061;28;20918;-92
2021/07/17 08:15:06;;;;;;;25.20;22.87;;;;;;;;;;5076273;28;20979;-92
2021/07/17 08:17:34;;;;;;;24.47;22.37;;;;;;;;;;5058490;28;20486;-91
2021/07/17 08:20:01;;;;;;;24.00;21.90;;;;;;;;;;5076179;28;20782;-92
2021/07/17 08:22:29;;;;;;;24.10;22.00;;;;;;;;;;5078523;28;20415;-91
2021/07/17 08:24:56;;;;;;;24.97;22.57;;;;;;;;;;5082650;28;20423;-91
2021/07/17 08:27:24;;;;;;;24.20;22.20;;;;;;;;;;5078351;28;20426;-91
2021/07/17 08:29:52;;;;;;;23.67;21.80;;;;;;;;;;5080771;28;20463;-92
2021/07/17 08:32:20;;;;;;;24.20;22.37;;;;;;;;;;5076887;28;20423;-94
2021/07/17 08:34:51;;;;;;;23.67;21.67;;;;;;;;;;5077540;28;20415;-92
2021/07/17 08:37:18;;;;;;;25.00;23.00;;;;;;;;;;5076918;28;20431;-92
2021/07/17 08:39:45;;;;;;;23.43;21.53;;;;;;;;;;5076101;28;20423;-91
2021/07/17 08:42:15;;;;;;;23.83;22.27;;;;;;;;;;5058276;28;20950;-91
2021/07/17 08:44:43;;;;;;;23.47;21.67;;;;;;;;;;5075780;28;20472;-90
2021/07/17 08:47:12;;;;;;;25.13;23.00;;;;;;;;;;5075555;28;20444;-91
2021/07/17 08:49:40;;;;;;;25.60;23.70;;;;;;;;;;5075139;28;20976;-91
2021/07/17 08:52:08;;;;;;;25.97;23.37;;;;;;;;;;5043722;28;20449;-91
2021/07/17 08:54:37;;;;;;;27.83;25.43;;;;;;;;;;5076335;28;20445;-96
2021/07/17 08:57:06;;;;;;;26.83;24.63;;;;;;;;;;5075494;28;20439;-94
2021/07/17 08:59:33;;;;;;;27.73;25.27;;;;;;;;;;5076495;28;20441;-92
2021/07/17 09:02:01;;;;;;;25.30;23.60;;;;;;;;;;5075219;28;20452;-91
2021/07/17 09:04:29;;;;;;;27.87;25.30;;;;;;;;;;5075950;28;20430;-92
2021/07/17 09:06:57;;;;;;;27.57;24.87;;;;;;;;;;5075884;28;20419;-91
2021/07/17 09:09:30;;;;;;;27.40;25.43;;;;;;;;;;5082363;28;20470;-91
2021/07/17 09:11:57;;;;;;;26.70;24.70;;;;;;;;;;5089935;28;20429;-89
2021/07/17 09:14:37;;;;;;;26.27;24.33;;;;;;;;;;5078532;28;20513;-90
2021/07/17 09:17:05;;;;;;;27.03;24.70;;;;;;;;;;5074958;28;21005;-91
2021/07/17 09:19:34;;;;;;;26.93;24.50;;;;;;;;;;5074984;28;20434;-91
2021/07/17 09:22:02;;;;;;;25.10;23.30;;;;;;;;;;5075019;28;20453;-91
2021/07/17 09:24:29;;;;;;;28.63;25.93;;;;;;;;;;5074737;28;20776;-91
2021/07/17 09:26:58;;;;;;;27.60;25.17;;;;;;;;;;5056853;28;20416;-90
2021/07/17 09:29:34;;;;;;;26.40;24.50;;;;;;;;;;5074803;28;20511;-91
2021/07/17 09:32:02;;;;;;;26.37;24.57;;;;;;;;;;5074332;28;20453;-91
2021/07/17 09:34:31;;;;;;;26.27;23.93;;;;;;;;;;5058538;28;20927;-92
2021/07/17 09:37:01;;;;;;;26.37;24.50;;;;;;;;;;5075345;28;20791;-91
2021/07/17 09:39:29;;;;;;;26.30;24.10;;;;;;;;;;5076068;28;20456;-91
2021/07/17 09:41:58;;;;;;;25.10;22.97;;;;;;;;;;5076360;28;20909;-91
2021/07/17 09:44:26;;;;;;;26.00;23.57;;;;;;;;;;5077524;28;20423;-91
2021/07/17 09:46:53;;;;;;;26.67;24.27;;;;;;;;;;5076686;28;20449;-91
2021/07/17 09:49:22;;;;;;;25.03;23.23;;;;;;;;;;5077141;28;20510;-91
2021/07/17 09:51:49;;;;;;;27.10;24.60;;;;;;;;;;5045164;28;20423;-92
2021/07/17 09:54:19;;;;;;;26.30;23.77;;;;;;;;;;5080866;28;20437;-94
2021/07/17 09:56:46;;;;;;;27.23;25.10;;;;;;;;;;5063792;28;20478;-90
2021/07/17 09:59:16;;;;;;;27.17;24.80;;;;;;;;;;5078889;28;20440;-91
2021/07/17 10:01:44;;;;;;;26.80;24.90;;;;;;;;;;5077796;28;20473;-91
2021/07/17 10:04:13;;;;;;;26.60;24.47;;;;;;;;;;5078346;28;20526;-90
2021/07/17 10:06:41;;;;;;;25.93;23.80;;;;;;;;;;5057770;28;20510;-91
2021/07/17 10:09:23;;;;;;;24.77;22.77;;;;;;;;;;5078813;28;20495;-92
2021/07/17 10:11:54;;;;;;;25.57;23.60;;;;;;;;;;5078512;28;20437;-91
2021/07/17 10:14:23;;;;;;;23.90;21.93;;;;;;;;;;5077645;28;21089;-90
2021/07/17 10:16:53;;;;;;;25.30;23.20;;;;;;;;;;5075210;28;20886;-91
2021/07/17 10:19:21;;;;;;;24.60;22.90;;;;;;;;;;5077213;28;20451;-92
2021/07/17 10:21:48;;;;;;;24.97;22.90;;;;;;;;;;5075487;28;20782;-92
2021/07/17 10:24:17;;;;;;;24.27;22.40;;;;;;;;;;5076319;28;20428;-91
2021/07/17 10:26:44;;;;;;;24.77;22.90;;;;;;;;;;5057967;28;20465;-91
2021/07/17 10:29:16;;;;;;;24.67;22.60;;;;;;;;;;5076990;28;20476;-91
2021/07/17 10:31:43;;;;;;;24.50;22.70;;;;;;;;;;5076427;28;20449;-90
2021/07/17 10:34:11;;;;;;;24.20;22.47;;;;;;;;;;5075054;28;20457;-91
2021/07/17 10:36:41;;;;;;;25.47;23.40;;;;;;;;;;5075957;28;20448;-92
2021/07/17 10:39:10;;;;;;;24.60;23.00;;;;;;;;;;5075703;28;20464;-92
2021/07/17 10:41:38;;;;;;;24.27;22.53;;;;;;;;;;5076376;28;20441;-91
2021/07/17 10:44:06;;;;;;;24.70;22.90;;;;;;;;;;5075013;28;20433;-91
2021/07/17 10:46:36;;;;;;;24.87;23.27;;;;;;;;;;5079018;28;20464;-92
2021/07/17 10:49:05;;;;;;;24.80;22.80;;;;;;;;;;5092900;28;20504;-92
2021/07/17 10:51:34;;;;;;;24.03;22.00;;;;;;;;;;5085858;28;20430;-93
2021/07/17 10:54:03;;;;;;;23.50;21.70;;;;;;;;;;5077559;28;20428;-91
2021/07/17 10:56:39;;;;;;;24.40;22.13;;;;;;;;;;5078324;28;20488;-95
2021/07/17 10:59:10;;;;;;;25.20;23.07;;;;;;;;;;5079406;28;20477;-92
2021/07/17 11:01:56;;;;;;;25.23;22.77;;;;;;;;;;5062160;28;20431;-94
2021/07/17 11:04:38;;;;;;;24.10;22.33;;;;;;;;;;5078439;28;20457;-94
2021/07/17 11:07:25;;;;;;;24.80;22.87;;;;;;;;;;5059790;28;20532;-95
2021/07/17 11:09:54;;;;;;;25.80;23.30;;;;;;;;;;5078046;28;20535;-94
2021/07/17 11:12:24;;;;;;;24.17;22.37;;;;;;;;;;5077567;28;20485;-94
2021/07/17 11:14:52;;;;;;;24.13;22.33;;;;;;;;;;5077104;28;20533;-94
2021/07/17 11:17:34;;;;;;;23.73;21.73;;;;;;;;;;5077760;28;20422;-94
2021/07/17 11:20:16;;;;;;;24.40;22.57;;;;;;;;;;5059263;28;20975;-94
2021/07/17 11:22:44;;;;;;;23.33;21.47;;;;;;;;;;5077760;28;20411;-94
2021/07/17 11:25:16;;;;;;;24.90;23.03;;;;;;;;;;5077299;28;20415;-95
2021/07/17 11:27:44;;;;;;;24.27;22.63;;;;;;;;;;5078710;28;20413;-91
2021/07/17 11:30:16;;;;;;;23.63;21.60;;;;;;;;;;5079368;28;20463;-91
2021/07/17 11:32:58;;;;;;;23.47;21.87;;;;;;;;;;5077939;28;20421;-91
2021/07/17 11:35:25;;;;;;;23.77;22.10;;;;;;;;;;5076283;28;20448;-91
2021/07/17 11:37:53;;;;;;;22.77;21.23;;;;;;;;;;5077465;28;20428;-91
2021/07/17 11:40:22;;;;;;;23.57;21.93;;;;;;;;;;5077021;28;20442;-90
2021/07/17 11:42:50;;;;;;;21.43;20.00;;;;;;;;;;5058631;28;20442;-90
2021/07/17 11:45:17;;;;;;;23.90;21.80;;;;;;;;;;5077738;28;20754;-91
2021/07/17 11:47:45;;;;;;;23.33;21.73;;;;;;;;;;5077282;28;20427;-91
2021/07/17 11:50:12;;;;;;;22.57;20.97;;;;;;;;;;5076197;28;20489;-91
2021/07/17 11:52:40;;;;;;;22.73;21.00;;;;;;;;;;5076880;28;20467;-91
2021/07/17 11:55:08;;;;;;;22.83;21.40;;;;;;;;;;5076804;28;20467;-91
2021/07/17 11:57:37;;;;;;;21.97;20.57;;;;;;;;;;5077278;28;20897;-91
2021/07/17 12:00:07;;;;;;;22.10;20.70;;;;;;;;;;5076162;28;20430;-91
2021/07/17 12:02:35;;;;;;;21.57;20.17;;;;;;;;;;5075893;28;20485;-91
2021/07/17 12:05:05;;;;;;;21.43;19.90;;;;;;;;;;5075869;28;20439;-91
2021/07/17 12:07:34;;;;;;;21.83;20.03;;;;;;;;;;5075736;28;20440;-93
2021/07/17 12:10:02;;;;;;;22.03;20.23;;;;;;;;;;5075713;28;20485;-90
2021/07/17 12:12:31;;;;;;;21.10;19.70;;;;;;;;;;5058716;28;20453;-91
2021/07/17 12:15:09;;;;;;;22.23;20.60;;;;;;;;;;5076019;28;20444;-91
2021/07/17 12:17:38;;;;;;;20.90;19.70;;;;;;;;;;5075951;28;20444;-91
2021/07/17 12:20:07;;;;;;;22.80;21.10;;;;;;;;;;5075853;28;20416;-91
2021/07/17 12:22:35;;;;;;;21.10;19.70;;;;;;;;;;5075515;28;20434;-90
2021/07/17 12:25:07;;;;;;;21.67;19.93;;;;;;;;;;5075703;28;20824;-90
2021/07/17 12:27:49;;;;;;;21.80;20.07;;;;;;;;;;5075778;28;20425;-90
2021/07/17 12:30:18;;;;;;;20.97;19.50;;;;;;;;;;5076005;28;20956;-91
2021/07/17 12:32:45;;;;;;;21.20;19.80;;;;;;;;;;5075584;28;20453;-90
2021/07/17 12:35:13;;;;;;;21.83;20.37;;;;;;;;;;5075809;28;20461;-91
2021/07/17 12:37:40;;;;;;;21.50;20.20;;;;;;;;;;5075977;28;20425;-90
2021/07/17 12:40:09;;;;;;;20.53;19.33;;;;;;;;;;5057645;28;20442;-90
2021/07/17 12:42:42;;;;;;;20.63;19.20;;;;;;;;;;5057380;28;20427;-91
2021/07/17 12:45:10;;;;;;;20.80;19.50;;;;;;;;;;5075528;28;20454;-90
2021/07/17 12:47:46;;;;;;;20.77;19.57;;;;;;;;;;5075142;28;20421;-90
2021/07/17 12:50:14;;;;;;;20.63;19.37;;;;;;;;;;5075500;28;20485;-90
2021/07/17 12:52:42;;;;;;;20.50;19.30;;;;;;;;;;5075094;28;20448;-91
2021/07/17 12:55:09;;;;;;;21.17;20.03;;;;;;;;;;5075188;28;20934;-90
2021/07/17 12:57:37;;;;;;;21.90;20.60;;;;;;;;;;5076310;28;20435;-90
2021/07/17 13:00:05;;;;;;;21.63;20.13;;;;;;;;;;5088544;28;20413;-90
2021/07/17 13:02:32;;;;;;;21.10;19.87;;;;;;;;;;5089507;28;20445;-90
2021/07/17 13:05:01;;;;;;;21.13;20.03;;;;;;;;;;5074947;28;20399;-90
2021/07/17 13:07:29;;;;;;;20.73;19.50;;;;;;;;;;5074962;28;20428;-91
2021/07/17 13:09:57;;;;;;;21.17;19.80;;;;;;;;;;5073926;28;20518;-90
2021/07/17 13:12:28;;;;;;;21.30;20.00;;;;;;;;;;5057292;28;20453;-89
2021/07/17 13:14:56;;;;;;;22.00;20.40;;;;;;;;;;5075442;28;20463;-90
2021/07/17 13:17:24;;;;;;;20.70;19.50;;;;;;;;;;5074843;28;20431;-90
2021/07/17 13:20:02;;;;;;;21.90;20.60;;;;;;;;;;5074665;28;20445;-90
2021/07/17 13:22:36;;;;;;;21.93;20.53;;;;;;;;;;5074592;28;20431;-90
2021/07/17 13:25:11;;;;;;;21.63;20.23;;;;;;;;;;5074946;28;20411;-90
2021/07/17 13:27:39;;;;;;;22.13;20.90;;;;;;;;;;5075504;28;20446;-90
2021/07/17 13:30:07;;;;;;;22.23;20.83;;;;;;;;;;5074784;28;20475;-90
2021/07/17 13:32:36;;;;;;;21.50;20.20;;;;;;;;;;5074930;28;20910;-88
2021/07/17 13:35:18;;;;;;;22.53;21.03;;;;;;;;;;5057106;28;21006;-91
2021/07/17 13:37:46;;;;;;;23.03;21.47;;;;;;;;;;5075721;28;20422;-90
2021/07/17 13:40:14;;;;;;;23.00;21.50;;;;;;;;;;5075363;28;20430;-90
2021/07/17 13:42:41;;;;;;;21.80;20.40;;;;;;;;;;5075337;28;20434;-90
2021/07/17 13:45:09;;;;;;;21.37;19.90;;;;;;;;;;5057217;28;20429;-89
2021/07/17 13:47:38;;;;;;;21.47;20.23;;;;;;;;;;5075043;28;20418;-90
2021/07/17 13:50:06;;;;;;;22.00;20.70;;;;;;;;;;5074682;28;20461;-90
2021/07/17 13:52:38;;;;;;;21.90;20.50;;;;;;;;;;5074443;28;20794;-89
2021/07/17 13:55:07;;;;;;;21.63;19.90;;;;;;;;;;5074853;28;20463;-89
2021/07/17 13:57:41;;;;;;;21.47;20.20;;;;;;;;;;5075023;28;20848;-89
2021/07/17 14:00:10;;;;;;;21.13;19.60;;;;;;;;;;5074495;28;20424;-89
2021/07/17 14:02:38;;;;;;;22.00;20.50;;;;;;;;;;5075112;28;20933;-90
2021/07/17 14:05:06;;;;;;;21.53;20.23;;;;;;;;;;5074462;28;20421;-91
2021/07/17 14:07:33;;;;;;;21.37;19.97;;;;;;;;;;5074280;28;20422;-91
2021/07/17 14:10:02;;;;;;;21.30;20.00;;;;;;;;;;5056469;28;20453;-92
2021/07/17 14:12:30;;;;;;;22.00;19.97;;;;;;;;;;5074452;28;20413;-93
2021/07/17 14:14:58;;;;;;;20.93;19.70;;;;;;;;;;5074092;28;20471;-92
2021/07/17 14:17:25;;;;;;;20.97;19.50;;;;;;;;;;5074457;28;20445;-91
2021/07/17 14:19:54;;;;;;;21.73;20.27;;;;;;;;;;5074703;28;20453;-92
2021/07/17 14:22:21;;;;;;;21.03;19.83;;;;;;;;;;5081650;28;20428;-92
2021/07/17 14:24:49;;;;;;;22.43;20.40;;;;;;;;;;5064959;28;20415;-92